createdAt,value
2022-08-05T00:00:18.339Z,100.00
2022-08-05T00:02:50.825Z,100.00
2022-08-05T00:06:03.096Z,100.00
2022-08-05T00:08:32.530Z,100.00
2022-08-05T00:11:01.696Z,100.00
2022-08-05T00:13:39.634Z,100.00
2022-08-05T00:16:12.299Z,100.00
2022-08-05T00:18:46.441Z,100.00
2022-08-05T00:21:17.648Z,100.00
2022-08-05T00:23:53.758Z,100.00
2022-08-05T00:26:34.798Z,100.00
2022-08-05T00:29:02.110Z,100.00
2022-08-05T00:31:54.035Z,100.00
2022-08-05T00:34:56.798Z,100.00
2022-08-05T00:37:12.517Z,100.00
2022-08-05T00:39:58.153Z,100.00
2022-08-05T00:42:42.397Z,100.00
2022-08-05T00:45:15.360Z,100.00
2022-08-05T00:47:57.246Z,100.00
2022-08-05T00:50:29.400Z,100.00
2022-08-05T00:52:56.408Z,100.00
2022-08-05T00:55:33.971Z,100.00
2022-08-05T00:58:13.916Z,100.00
2022-08-05T01:00:42.102Z,100.00
2022-08-05T01:03:15.000Z,100.00
2022-08-05T01:05:49.483Z,100.00
2022-08-05T01:08:39.899Z,100.00
2022-08-05T01:11:33.296Z,100.00
2022-08-05T01:14:28.769Z,100.00
2022-08-05T01:17:21.714Z,100.00
2022-08-05T01:20:14.530Z,100.00
2022-08-05T01:22:54.114Z,100.00
2022-08-05T01:26:05.094Z,100.00
2022-08-05T01:28:43.737Z,100.00
2022-08-05T01:31:42.802Z,100.00
2022-08-05T01:34:35.922Z,100.00
2022-08-05T01:37:24.378Z,100.00
2022-08-05T01:39:58.764Z,100.00
2022-08-05T01:42:27.879Z,100.00
2022-08-05T01:44:59.876Z,100.00
2022-08-05T01:47:39.442Z,100.00
2022-08-05T01:50:28.596Z,100.00
2022-08-05T01:53:01.467Z,100.00
2022-08-05T01:55:36.032Z,100.00
2022-08-05T01:58:24.724Z,100.00
2022-08-05T02:00:59.443Z,100.00
2022-08-05T02:03:38.998Z,100.00
2022-08-05T02:06:33.548Z,100.00
2022-08-05T02:08:58.193Z,100.00
2022-08-05T02:11:32.811Z,100.00
2022-08-05T02:14:47.937Z,100.00
2022-08-05T02:18:30.925Z,100.00
2022-08-05T02:20:26.607Z,100.00
2022-08-05T02:23:02.327Z,100.00
2022-08-05T02:25:50.148Z,100.00
2022-08-05T02:28:29.337Z,100.00
2022-08-05T02:31:21.945Z,100.00
2022-08-05T02:34:09.240Z,100.00
2022-08-05T02:36:45.684Z,100.00
2022-08-05T02:39:21.457Z,100.00
2022-08-05T02:42:00.706Z,100.00
2022-08-05T02:44:31.713Z,100.00
2022-08-05T02:47:01.057Z,100.00
2022-08-05T02:49:37.670Z,100.00
2022-08-05T02:52:29.556Z,100.00
2022-08-05T02:54:58.723Z,100.00
2022-08-05T02:58:20.178Z,100.00
2022-08-05T03:00:17.884Z,100.00
2022-08-05T03:02:47.742Z,100.00
2022-08-05T03:05:16.027Z,100.00
2022-08-05T03:08:06.766Z,100.00
2022-08-05T03:10:31.557Z,100.00
2022-08-05T03:15:27.630Z,100.00
2022-08-05T03:17:57.496Z,100.00
2022-08-05T03:20:25.135Z,100.00
2022-08-05T03:22:57.316Z,100.00
2022-08-05T03:25:33.617Z,100.00
2022-08-05T03:28:14.520Z,100.00
2022-08-05T03:30:48.534Z,100.00
2022-08-05T03:33:16.540Z,100.00
2022-08-05T03:35:46.671Z,100.00
2022-08-05T03:38:15.041Z,100.00
2022-08-05T03:40:48.573Z,100.00
2022-08-05T03:44:09.947Z,100.00
2022-08-05T03:46:05.154Z,100.00
2022-08-05T03:48:36.756Z,100.00
2022-08-05T03:52:37.772Z,100.00
2022-08-05T03:55:07.215Z,100.00
2022-08-05T03:57:41.775Z,100.00
2022-08-05T04:00:15.956Z,100.00
2022-08-05T04:02:57.641Z,100.00
2022-08-05T04:05:35.562Z,100.00
2022-08-05T04:08:30.235Z,100.00
2022-08-05T04:10:58.765Z,100.00
2022-08-05T04:13:27.866Z,100.00
2022-08-05T04:16:14.777Z,100.00
2022-08-05T04:18:44.859Z,100.00
2022-08-05T04:22:05.872Z,100.00
2022-08-05T04:24:06.211Z,100.00
2022-08-05T04:26:34.584Z,100.00
2022-08-05T04:29:07.240Z,100.00
2022-08-05T04:31:38.591Z,100.00
2022-08-05T04:34:31.450Z,100.00
2022-08-05T04:36:53.874Z,100.00
2022-08-05T04:39:21.125Z,100.00
2022-08-05T04:41:51.053Z,100.00
2022-08-05T04:44:21.503Z,100.00
2022-08-05T04:46:58.785Z,100.00
2022-08-05T04:49:38.823Z,100.00
2022-08-05T04:52:15.685Z,100.00
2022-08-05T04:54:42.852Z,100.00
2022-08-05T04:57:10.079Z,100.00
2022-08-05T04:59:40.489Z,100.00
2022-08-05T05:02:36.766Z,100.00
2022-08-05T05:05:01.983Z,100.00
2022-08-05T05:07:32.256Z,100.00
2022-08-05T05:10:04.417Z,100.00
2022-08-05T05:12:31.998Z,100.00
2022-08-05T05:14:59.101Z,100.00
2022-08-05T05:17:57.142Z,100.00
2022-08-05T05:20:28.364Z,100.00
2022-08-05T05:22:58.295Z,100.00
2022-08-05T05:25:32.673Z,100.00
2022-08-05T05:28:08.552Z,100.00
2022-08-05T05:30:37.223Z,100.00
2022-08-05T05:33:14.006Z,100.00
2022-08-05T05:35:45.278Z,100.00
2022-08-05T05:38:14.018Z,100.00
2022-08-05T05:40:49.442Z,100.00
2022-08-05T05:43:28.114Z,100.00
2022-08-05T05:46:05.103Z,100.00
2022-08-05T05:48:32.935Z,100.00
2022-08-05T05:51:14.804Z,100.00
2022-08-05T05:53:54.222Z,100.00
2022-08-05T05:56:32.386Z,100.00
2022-08-05T05:59:06.390Z,100.00
2022-08-05T06:01:40.793Z,100.00
2022-08-05T06:04:24.747Z,100.00
2022-08-05T06:06:51.834Z,100.00
2022-08-05T06:09:25.831Z,100.00
2022-08-05T06:12:06.920Z,100.00
2022-08-05T06:14:37.013Z,100.00
2022-08-05T06:17:24.314Z,100.00
2022-08-05T06:19:56.947Z,100.00
2022-08-05T06:22:33.481Z,100.00
2022-08-05T06:25:25.136Z,100.00
2022-08-05T06:28:11.032Z,100.00
2022-08-05T06:30:38.014Z,100.00
2022-08-05T06:33:04.999Z,100.00
2022-08-05T06:36:08.343Z,100.00
2022-08-05T06:38:35.593Z,100.00
2022-08-05T06:41:05.245Z,100.00
2022-08-05T06:43:58.027Z,100.00
2022-08-05T06:46:23.170Z,100.00
2022-08-05T06:48:59.692Z,100.00
2022-08-05T06:51:29.841Z,100.00
2022-08-05T06:54:04.138Z,100.00
2022-08-05T06:56:34.437Z,100.00
2022-08-05T06:59:08.653Z,100.00
2022-08-05T07:01:37.237Z,100.00
2022-08-05T07:04:08.099Z,100.00
2022-08-05T07:06:35.166Z,100.00
2022-08-05T07:09:03.746Z,100.00
2022-08-05T07:11:36.800Z,100.00
2022-08-05T07:14:30.349Z,100.00
2022-08-05T07:18:01.903Z,100.00
2022-08-05T07:22:42.192Z,100.00
2022-08-05T07:25:53.887Z,100.00
2022-08-05T07:28:03.794Z,100.00
2022-08-05T07:30:38.349Z,100.00
2022-08-05T07:33:16.587Z,100.00
2022-08-05T07:36:03.088Z,100.00
2022-08-05T07:38:43.549Z,100.00
2022-08-05T07:42:13.074Z,100.00
2022-08-05T07:44:18.824Z,100.00
2022-08-05T07:46:49.346Z,100.00
2022-08-05T07:49:18.232Z,100.00
2022-08-05T07:51:54.603Z,100.00
2022-08-05T07:54:31.227Z,100.00
2022-08-05T07:57:22.478Z,100.00
2022-08-05T07:59:52.262Z,100.00
2022-08-05T08:02:26.739Z,100.00
2022-08-05T08:05:00.082Z,100.00
2022-08-05T08:07:28.360Z,100.00
2022-08-05T08:09:55.834Z,100.00
2022-08-05T08:12:35.520Z,100.00
2022-08-05T08:15:13.933Z,100.00
2022-08-05T08:17:50.592Z,100.00
2022-08-05T08:20:59.740Z,100.00
2022-08-05T08:24:01.070Z,100.00
2022-08-05T08:26:02.473Z,100.00
2022-08-05T08:28:36.849Z,100.00
2022-08-05T08:31:07.972Z,100.00
2022-08-05T08:33:35.971Z,100.00
2022-08-05T08:38:56.166Z,100.00
2022-08-05T08:41:51.239Z,100.00
2022-08-05T08:45:21.421Z,100.00
2022-08-05T08:47:46.970Z,100.00
2022-08-05T08:50:23.315Z,100.00
2022-08-05T08:52:56.838Z,100.00
2022-08-05T08:56:02.150Z,100.00
2022-08-05T08:58:15.031Z,100.00
2022-08-05T09:00:42.955Z,100.00
2022-08-05T09:03:12.178Z,100.00
2022-08-05T09:06:09.221Z,100.00
2022-08-05T09:08:30.525Z,100.00
2022-08-05T09:10:58.271Z,100.00
2022-08-05T09:13:31.708Z,100.00
2022-08-05T09:16:14.536Z,100.00
2022-08-05T09:18:44.498Z,100.00
2022-08-05T09:21:20.688Z,100.00
2022-08-05T09:24:10.180Z,100.00
2022-08-05T09:26:37.860Z,100.00
2022-08-05T09:29:09.671Z,100.00
2022-08-05T09:32:42.167Z,100.00
2022-08-05T09:34:26.151Z,100.00
2022-08-05T09:36:55.574Z,100.00
2022-08-05T09:39:39.332Z,100.00
2022-08-05T09:42:13.612Z,100.00
2022-08-05T09:44:50.525Z,100.00
2022-08-05T09:47:25.644Z,100.00
2022-08-05T09:50:02.392Z,100.00
2022-08-05T09:52:34.245Z,100.00
2022-08-05T09:55:57.653Z,100.00
2022-08-05T09:57:59.711Z,100.00
2022-08-05T10:00:29.556Z,100.00
2022-08-05T10:02:58.344Z,100.00
2022-08-05T10:05:28.538Z,100.00
2022-08-05T10:08:35.319Z,100.00
2022-08-05T10:10:54.704Z,100.00
2022-08-05T10:13:47.133Z,100.00
2022-08-05T10:16:52.435Z,100.00
2022-08-05T10:19:23.627Z,100.00
2022-08-05T10:22:09.118Z,100.00
2022-08-05T10:24:43.011Z,100.00
2022-08-05T10:27:16.679Z,100.00
2022-08-05T10:30:07.002Z,100.00
2022-08-05T10:32:52.142Z,100.00
2022-08-05T10:35:20.019Z,100.00
2022-08-05T10:38:01.613Z,100.00
2022-08-05T10:40:34.209Z,100.00
2022-08-05T10:43:47.760Z,100.00
2022-08-05T10:46:18.887Z,100.00
2022-08-05T10:49:02.720Z,100.00
2022-08-05T10:52:05.530Z,100.00
2022-08-05T10:55:02.249Z,100.00
2022-08-05T10:57:32.008Z,100.00
2022-08-05T11:00:20.858Z,100.00
2022-08-05T11:03:25.169Z,100.00
2022-08-05T11:06:15.579Z,100.00
2022-08-05T11:09:13.011Z,100.00
2022-08-05T11:11:52.589Z,97.83
2022-08-05T11:15:01.241Z,78.17
2022-08-05T11:17:59.654Z,92.53
2022-08-05T11:20:46.075Z,82.96
2022-08-05T11:24:03.383Z,80.48
2022-08-05T11:26:32.614Z,88.92
2022-08-05T11:29:06.788Z,85.45
2022-08-05T11:31:56.561Z,82.36
2022-08-05T11:34:51.547Z,72.73
2022-08-05T11:38:29.209Z,71.32
2022-08-05T11:41:13.834Z,66.44
2022-08-05T11:44:40.623Z,69.32
2022-08-05T11:47:11.242Z,68.71
2022-08-05T11:49:49.865Z,66.53
2022-08-05T11:52:29.921Z,62.58
2022-08-05T11:55:07.740Z,64.20
2022-08-05T11:58:08.301Z,64.02
2022-08-05T12:00:29.240Z,64.57
2022-08-05T12:02:57.694Z,62.88
2022-08-05T12:05:36.047Z,62.48
2022-08-05T12:08:09.883Z,66.10
2022-08-05T12:10:45.258Z,70.39
2022-08-05T12:13:28.203Z,74.43
2022-08-05T12:16:15.049Z,76.51
2022-08-05T12:18:49.349Z,79.98
2022-08-05T12:21:38.942Z,85.57
2022-08-05T12:24:10.814Z,91.81
2022-08-05T12:26:53.879Z,88.31
2022-08-05T12:29:24.165Z,87.79
2022-08-05T12:31:58.089Z,93.49
2022-08-05T12:34:37.114Z,94.55
2022-08-05T12:37:17.370Z,83.13
2022-08-05T12:39:53.932Z,84.80
2022-08-05T12:42:25.379Z,75.90
2022-08-05T12:44:52.651Z,77.06
2022-08-05T12:47:31.043Z,68.83
2022-08-05T12:50:01.969Z,69.02
2022-08-05T12:52:33.853Z,64.70
2022-08-05T12:55:15.826Z,64.53
2022-08-05T12:58:39.188Z,60.68
2022-08-05T13:02:01.454Z,60.11
2022-08-05T13:03:18.545Z,60.35
2022-08-05T13:05:48.695Z,61.93
2022-08-05T13:08:20.241Z,58.79
2022-08-05T13:10:50.543Z,58.42
2022-08-05T13:14:04.639Z,57.89
2022-08-05T13:16:15.340Z,55.57
2022-08-05T13:18:57.951Z,55.50
2022-08-05T13:21:28.363Z,59.19
2022-08-05T13:24:08.821Z,56.74
2022-08-05T13:26:36.517Z,54.05
2022-08-05T13:29:05.111Z,53.36
2022-08-05T13:32:03.451Z,54.58
2022-08-05T13:34:22.026Z,53.37
2022-08-05T13:36:53.700Z,55.17
2022-08-05T13:40:13.378Z,54.48
2022-08-05T13:42:14.585Z,55.54
2022-08-05T13:44:46.403Z,55.05
2022-08-05T13:47:34.738Z,54.51
2022-08-05T13:50:06.843Z,53.13
2022-08-05T13:52:38.578Z,53.68
2022-08-05T13:55:07.417Z,54.52
2022-08-05T13:57:51.463Z,52.84
2022-08-05T14:00:27.106Z,52.25
2022-08-05T14:02:57.304Z,50.75
2022-08-05T14:05:47.913Z,51.91
2022-08-05T14:08:21.005Z,50.92
2022-08-05T14:10:59.828Z,51.74
2022-08-05T14:13:42.269Z,50.31
2022-08-05T14:16:11.188Z,51.21
2022-08-05T14:18:38.682Z,51.00
2022-08-05T14:22:06.970Z,52.38
2022-08-05T14:23:53.296Z,50.62
2022-08-05T14:26:37.026Z,53.22
2022-08-05T14:29:09.996Z,53.99
2022-08-05T14:32:02.724Z,53.63
2022-08-05T14:34:35.627Z,54.12
2022-08-05T14:37:04.669Z,54.86
2022-08-05T14:39:50.202Z,54.18
2022-08-05T14:42:21.830Z,55.78
2022-08-05T14:44:49.755Z,55.65
2022-08-05T14:47:17.615Z,55.99
2022-08-05T14:50:14.189Z,54.01
2022-08-05T14:52:52.997Z,52.78
2022-08-05T14:55:20.420Z,52.11
2022-08-05T14:57:54.771Z,53.62
2022-08-05T15:00:27.961Z,54.09
2022-08-05T15:02:55.639Z,53.13
2022-08-05T15:05:29.784Z,52.90
2022-08-05T15:08:09.144Z,52.32
2022-08-05T15:10:46.237Z,53.21
2022-08-05T15:13:14.348Z,51.76
2022-08-05T15:15:55.261Z,52.33
2022-08-05T15:18:24.999Z,53.15
2022-08-05T15:20:52.111Z,55.82
2022-08-05T15:23:19.876Z,55.94
2022-08-05T15:25:53.384Z,58.66
2022-08-05T15:28:27.348Z,60.12
2022-08-05T15:30:55.286Z,61.42
2022-08-05T15:34:04.813Z,64.24
2022-08-05T15:36:16.786Z,65.02
2022-08-05T15:38:46.604Z,65.16
2022-08-05T15:41:22.838Z,65.55
2022-08-05T15:43:54.671Z,67.46
2022-08-05T15:46:24.042Z,63.58
2022-08-05T15:49:01.463Z,62.13
2022-08-05T15:52:04.356Z,64.27
2022-08-05T15:54:35.093Z,62.67
2022-08-05T15:57:07.603Z,62.80
2022-08-05T15:59:38.250Z,63.62
2022-08-05T16:02:09.716Z,64.58
2022-08-05T16:04:43.477Z,62.01
2022-08-05T16:07:11.454Z,60.18
2022-08-05T16:09:41.487Z,58.92
2022-08-05T16:12:09.632Z,58.17
2022-08-05T16:14:38.596Z,61.15
2022-08-05T16:17:05.721Z,61.23
2022-08-05T16:20:04.443Z,65.07
2022-08-05T16:22:27.511Z,63.12
2022-08-05T16:25:05.323Z,62.94
2022-08-05T16:27:59.895Z,65.40
2022-08-05T16:30:26.038Z,64.93
2022-08-05T16:32:54.241Z,68.32
2022-08-05T16:35:27.806Z,64.40
2022-08-05T16:38:15.171Z,64.76
2022-08-05T16:40:47.670Z,64.91
2022-08-05T16:43:19.840Z,62.43
2022-08-05T16:46:06.669Z,70.02
2022-08-05T16:48:35.806Z,73.23
2022-08-05T16:51:08.697Z,78.81
2022-08-05T16:54:05.421Z,77.61
2022-08-05T16:56:26.863Z,82.23
2022-08-05T16:58:54.300Z,79.20
2022-08-05T17:01:21.582Z,90.62
2022-08-05T17:03:52.040Z,98.69
2022-08-05T17:06:20.149Z,100.00
2022-08-05T17:08:54.180Z,100.00
2022-08-05T17:11:23.731Z,95.23
2022-08-05T17:14:00.306Z,85.43
2022-08-05T17:16:37.802Z,95.55
2022-08-05T17:19:09.645Z,94.96
2022-08-05T17:21:39.817Z,94.97
2022-08-05T17:24:19.810Z,93.74
2022-08-05T17:26:59.015Z,77.26
2022-08-05T17:29:33.698Z,90.08
2022-08-05T17:32:26.128Z,77.46
2022-08-05T17:34:53.383Z,86.97
2022-08-05T17:37:40.575Z,66.18
2022-08-05T17:40:12.349Z,65.28
2022-08-05T17:42:41.664Z,73.15
2022-08-05T17:45:20.330Z,91.85
2022-08-05T17:47:54.451Z,85.18
2022-08-05T17:50:30.526Z,84.37
2022-08-05T17:53:05.477Z,93.70
2022-08-05T17:55:37.170Z,97.28
2022-08-05T17:58:10.924Z,83.86
2022-08-05T18:00:47.164Z,70.29
2022-08-05T18:03:56.259Z,65.03
2022-08-05T18:06:12.244Z,68.35
2022-08-05T18:08:45.832Z,78.89
2022-08-05T18:11:24.131Z,87.18
2022-08-05T18:13:57.110Z,91.58
2022-08-05T18:16:26.722Z,85.71
2022-08-05T18:18:53.818Z,89.43
2022-08-05T18:21:23.026Z,94.70
2022-08-05T18:23:54.318Z,90.58
2022-08-05T18:26:29.209Z,94.90
2022-08-05T18:28:59.839Z,95.66
2022-08-05T18:31:32.916Z,99.39
2022-08-05T18:34:06.057Z,96.98
2022-08-05T18:36:35.422Z,98.95
2022-08-05T18:39:06.552Z,98.50
2022-08-05T18:41:55.344Z,96.98
2022-08-05T18:44:33.376Z,98.79
2022-08-05T18:47:03.898Z,97.82
2022-08-05T18:49:57.897Z,96.22
2022-08-05T18:52:33.695Z,98.00
2022-08-05T18:55:06.225Z,100.00
2022-08-05T18:57:50.209Z,98.74
2022-08-05T19:00:28.774Z,97.61
2022-08-05T19:02:57.845Z,94.86
2022-08-05T19:06:12.871Z,93.78
2022-08-05T19:08:19.276Z,94.30
2022-08-05T19:10:50.471Z,94.51
2022-08-05T19:13:18.351Z,96.25
2022-08-05T19:16:00.165Z,98.96
2022-08-05T19:18:30.658Z,100.00
2022-08-05T19:20:59.607Z,100.00
2022-08-05T19:24:05.456Z,100.00
2022-08-05T19:26:16.554Z,100.00
2022-08-05T19:28:43.929Z,100.00
2022-08-05T19:31:17.715Z,100.00
2022-08-05T19:33:48.537Z,100.00
2022-08-05T19:36:26.745Z,100.00
2022-08-05T19:39:01.046Z,100.00
2022-08-05T19:41:57.976Z,100.00
2022-08-05T19:44:18.678Z,100.00
2022-08-05T19:46:46.457Z,100.00
2022-08-05T19:49:16.552Z,100.00
2022-08-05T19:52:05.667Z,100.00
2022-08-05T19:54:32.866Z,100.00
2022-08-05T19:57:08.645Z,100.00
2022-08-05T19:59:56.736Z,100.00
2022-08-05T20:02:30.456Z,100.00
2022-08-05T20:04:59.792Z,100.00
2022-08-05T20:07:46.214Z,100.00
2022-08-05T20:10:16.681Z,100.00
2022-08-05T20:12:46.077Z,100.00
2022-08-05T20:15:48.782Z,100.00
2022-08-05T20:18:10.470Z,100.00
2022-08-05T20:20:55.296Z,100.00
2022-08-05T20:23:40.569Z,100.00
2022-08-05T20:26:16.485Z,100.00
2022-08-05T20:28:48.569Z,100.00
2022-08-05T20:31:17.450Z,100.00
2022-08-05T20:33:49.361Z,100.00
2022-08-05T20:36:17.978Z,100.00
2022-08-05T20:38:54.461Z,100.00
2022-08-05T20:41:44.472Z,100.00
2022-08-05T20:44:19.418Z,100.00
2022-08-05T20:47:01.953Z,100.00
2022-08-05T20:49:37.772Z,100.00
2022-08-05T20:52:07.294Z,100.00
2022-08-05T20:54:43.288Z,100.00
2022-08-05T20:57:24.905Z,100.00
2022-08-05T21:00:41.204Z,100.00
2022-08-05T21:03:06.356Z,100.00
2022-08-05T21:05:47.654Z,100.00
2022-08-05T21:08:26.804Z,100.00
2022-08-05T21:11:00.483Z,100.00
2022-08-05T21:13:55.758Z,100.00
2022-08-05T21:16:19.392Z,100.00
2022-08-05T21:18:46.455Z,100.00
2022-08-05T21:21:14.735Z,100.00
2022-08-05T21:23:42.756Z,100.00
2022-08-05T21:26:14.381Z,100.00
2022-08-05T21:28:47.727Z,100.00
2022-08-05T21:31:18.334Z,100.00
2022-08-05T21:33:47.874Z,100.00
2022-08-05T21:36:27.754Z,100.00
2022-08-05T21:38:57.381Z,100.00
2022-08-05T21:41:26.055Z,100.00
2022-08-05T21:44:04.192Z,100.00
2022-08-05T21:46:34.214Z,100.00
2022-08-05T21:49:04.768Z,100.00
2022-08-05T21:52:15.781Z,100.00
2022-08-05T21:54:30.731Z,100.00
2022-08-05T21:57:29.782Z,100.00
2022-08-05T22:00:03.892Z,100.00
2022-08-05T22:02:33.852Z,100.00
2022-08-05T22:05:00.936Z,100.00
2022-08-05T22:07:39.851Z,100.00
2022-08-05T22:10:17.792Z,100.00
2022-08-05T22:14:05.027Z,100.00
2022-08-05T22:16:00.595Z,100.00
2022-08-05T22:18:31.911Z,100.00
2022-08-05T22:20:59.198Z,100.00
2022-08-05T22:24:02.034Z,100.00
2022-08-05T22:26:49.745Z,100.00
2022-08-05T22:29:18.814Z,100.00
2022-08-05T22:31:55.352Z,100.00
2022-08-05T22:34:29.046Z,100.00
2022-08-05T22:36:58.719Z,100.00
2022-08-05T22:39:33.404Z,100.00
2022-08-05T22:42:12.553Z,100.00
2022-08-05T22:44:48.201Z,100.00
2022-08-05T22:47:29.217Z,100.00
2022-08-05T22:50:22.860Z,100.00
2022-08-05T22:52:51.332Z,100.00
2022-08-05T22:55:21.396Z,100.00
2022-08-05T22:57:53.172Z,100.00
2022-08-05T23:00:22.605Z,100.00
2022-08-05T23:02:52.109Z,100.00
2022-08-05T23:05:22.234Z,100.00
2022-08-05T23:07:50.962Z,100.00
2022-08-05T23:10:20.873Z,100.00
2022-08-05T23:12:55.105Z,100.00
2022-08-05T23:15:27.124Z,100.00
2022-08-05T23:18:00.850Z,100.00
2022-08-05T23:20:37.207Z,100.00
2022-08-05T23:23:08.006Z,100.00
2022-08-05T23:25:52.477Z,100.00
2022-08-05T23:28:28.923Z,100.00
2022-08-05T23:31:16.620Z,100.00
2022-08-05T23:34:05.613Z,100.00
2022-08-05T23:36:38.789Z,100.00
2022-08-05T23:39:17.544Z,100.00
2022-08-05T23:41:59.901Z,100.00
2022-08-05T23:44:28.059Z,100.00
2022-08-05T23:47:02.550Z,100.00
2022-08-05T23:49:45.668Z,100.00
2022-08-05T23:52:32.679Z,100.00
2022-08-05T23:55:09.638Z,100.00
2022-08-05T23:57:38.091Z,100.00
